sensor_id;sensor_type;location;lat;lon;timestamp;P1;durP1;ratioP1;P2;durP2;ratioP2
11255;SDS011;5685;52.384;13.420;2022-10-31T00:00:49;15.20;;;13.97;;
11255;SDS011;5685;52.384;13.420;2022-10-31T00:03:53;16.43;;;14.93;;
11255;SDS011;5685;52.384;13.420;2022-10-31T00:06:55;16.00;;;14.70;;
11255;SDS011;5685;52.384;13.420;2022-10-31T00:09:57;15.17;;;13.90;;
11255;SDS011;5685;52.384;13.420;2022-10-31T00:12:59;16.17;;;15.00;;
11255;SDS011;5685;52.384;13.420;2022-10-31T00:16:02;15.93;;;14.63;;
11255;SDS011;5685;52.384;13.420;2022-10-31T00:19:06;16.33;;;15.00;;
11255;SDS011;5685;52.384;13.420;2022-10-31T00:22:09;16.57;;;15.27;;
11255;SDS011;5685;52.384;13.420;2022-10-31T00:25:12;16.47;;;15.10;;
11255;SDS011;5685;52.384;13.420;2022-10-31T00:28:14;16.10;;;14.80;;
11255;SDS011;5685;52.384;13.420;2022-10-31T00:31:16;16.00;;;14.70;;
11255;SDS011;5685;52.384;13.420;2022-10-31T00:34:20;15.27;;;13.97;;
11255;SDS011;5685;52.384;13.420;2022-10-31T00:37:22;16.20;;;14.90;;
11255;SDS011;5685;52.384;13.420;2022-10-31T00:40:24;15.87;;;14.67;;
11255;SDS011;5685;52.384;13.420;2022-10-31T00:43:27;15.43;;;14.23;;
11255;SDS011;5685;52.384;13.420;2022-10-31T00:46:29;15.50;;;14.17;;
11255;SDS011;5685;52.384;13.420;2022-10-31T00:49:32;17.30;;;15.60;;
11255;SDS011;5685;52.384;13.420;2022-10-31T00:52:35;17.03;;;14.47;;
11255;SDS011;5685;52.384;13.420;2022-10-31T00:55:37;15.37;;;14.20;;
11255;SDS011;5685;52.384;13.420;2022-10-31T00:58:39;15.93;;;14.67;;
11255;SDS011;5685;52.384;13.420;2022-10-31T01:01:41;15.53;;;14.33;;
11255;SDS011;5685;52.384;13.420;2022-10-31T01:04:45;16.57;;;15.37;;
11255;SDS011;5685;52.384;13.420;2022-10-31T01:07:47;15.80;;;14.30;;
11255;SDS011;5685;52.384;13.420;2022-10-31T01:10:57;16.27;;;14.87;;
11255;SDS011;5685;52.384;13.420;2022-10-31T01:14:02;15.60;;;14.40;;
11255;SDS011;5685;52.384;13.420;2022-10-31T01:17:04;14.83;;;13.80;;
11255;SDS011;5685;52.384;13.420;2022-10-31T01:20:08;15.47;;;14.47;;
11255;SDS011;5685;52.384;13.420;2022-10-31T01:23:12;16.13;;;14.73;;
11255;SDS011;5685;52.384;13.420;2022-10-31T01:26:16;14.50;;;13.50;;
11255;SDS011;5685;52.384;13.420;2022-10-31T01:29:19;14.97;;;13.87;;
11255;SDS011;5685;52.384;13.420;2022-10-31T01:32:21;15.10;;;13.97;;
11255;SDS011;5685;52.384;13.420;2022-10-31T01:35:25;14.57;;;13.43;;
11255;SDS011;5685;52.384;13.420;2022-10-31T01:38:28;14.90;;;13.60;;
11255;SDS011;5685;52.384;13.420;2022-10-31T01:41:31;13.60;;;12.60;;
11255;SDS011;5685;52.384;13.420;2022-10-31T01:44:53;13.60;;;12.60;;
11255;SDS011;5685;52.384;13.420;2022-10-31T01:47:59;15.43;;;14.23;;
11255;SDS011;5685;52.384;13.420;2022-10-31T01:51:03;15.27;;;14.07;;
11255;SDS011;5685;52.384;13.420;2022-10-31T01:54:06;15.27;;;13.80;;
11255;SDS011;5685;52.384;13.420;2022-10-31T01:57:13;14.67;;;13.57;;
11255;SDS011;5685;52.384;13.420;2022-10-31T02:00:17;14.03;;;13.07;;
11255;SDS011;5685;52.384;13.420;2022-10-31T02:03:22;15.03;;;13.97;;
11255;SDS011;5685;52.384;13.420;2022-10-31T02:06:33;15.03;;;13.77;;
11255;SDS011;5685;52.384;13.420;2022-10-31T02:09:40;14.00;;;12.80;;
11255;SDS011;5685;52.384;13.420;2022-10-31T02:12:44;15.37;;;14.27;;
11255;SDS011;5685;52.384;13.420;2022-10-31T02:15:48;14.33;;;13.23;;
11255;SDS011;5685;52.384;13.420;2022-10-31T02:18:53;14.47;;;13.17;;
11255;SDS011;5685;52.384;13.420;2022-10-31T02:22:00;13.57;;;12.57;;
11255;SDS011;5685;52.384;13.420;2022-10-31T02:25:12;14.13;;;13.17;;
11255;SDS011;5685;52.384;13.420;2022-10-31T02:28:49;14.30;;;13.40;;
11255;SDS011;5685;52.384;13.420;2022-10-31T02:32:09;14.13;;;13.17;;
11255;SDS011;5685;52.384;13.420;2022-10-31T02:35:27;14.43;;;13.43;;
11255;SDS011;5685;52.384;13.420;2022-10-31T02:38:53;14.70;;;13.67;;
11255;SDS011;5685;52.384;13.420;2022-10-31T02:42:08;14.80;;;13.70;;
11255;SDS011;5685;52.384;13.420;2022-10-31T02:45:18;14.43;;;13.43;;
11255;SDS011;5685;52.384;13.420;2022-10-31T02:48:31;14.57;;;13.50;;
11255;SDS011;5685;52.384;13.420;2022-10-31T02:51:36;14.57;;;13.57;;
11255;SDS011;5685;52.384;13.420;2022-10-31T02:54:40;13.93;;;12.90;;
11255;SDS011;5685;52.384;13.420;2022-10-31T02:57:43;14.00;;;12.93;;
11255;SDS011;5685;52.384;13.420;2022-10-31T03:04:26;13.67;;;12.60;;
11255;SDS011;5685;52.384;13.420;2022-10-31T03:07:42;13.30;;;12.20;;
11255;SDS011;5685;52.384;13.420;2022-10-31T03:10:55;13.73;;;12.63;;
11255;SDS011;5685;52.384;13.420;2022-10-31T03:14:00;13.70;;;12.80;;
11255;SDS011;5685;52.384;13.420;2022-10-31T03:17:16;13.77;;;12.87;;
11255;SDS011;5685;52.384;13.420;2022-10-31T03:20:27;14.23;;;13.17;;
11255;SDS011;5685;52.384;13.420;2022-10-31T03:23:36;13.37;;;12.27;;
11255;SDS011;5685;52.384;13.420;2022-10-31T03:26:41;13.33;;;12.33;;
11255;SDS011;5685;52.384;13.420;2022-10-31T03:29:46;13.83;;;12.83;;
11255;SDS011;5685;52.384;13.420;2022-10-31T03:32:51;12.87;;;12.07;;
11255;SDS011;5685;52.384;13.420;2022-10-31T03:35:58;12.93;;;12.10;;
11255;SDS011;5685;52.384;13.420;2022-10-31T03:39:05;13.73;;;12.63;;
11255;SDS011;5685;52.384;13.420;2022-10-31T03:42:14;13.17;;;12.27;;
11255;SDS011;5685;52.384;13.420;2022-10-31T03:45:20;12.67;;;11.77;;
11255;SDS011;5685;52.384;13.420;2022-10-31T03:48:26;12.97;;;12.03;;
11255;SDS011;5685;52.384;13.420;2022-10-31T03:51:32;13.43;;;12.53;;
11255;SDS011;5685;52.384;13.420;2022-10-31T03:54:40;13.30;;;12.40;;
11255;SDS011;5685;52.384;13.420;2022-10-31T03:57:48;12.73;;;11.83;;
11255;SDS011;5685;52.384;13.420;2022-10-31T04:00:57;12.70;;;11.80;;
11255;SDS011;5685;52.384;13.420;2022-10-31T04:04:02;13.77;;;12.63;;
11255;SDS011;5685;52.384;13.420;2022-10-31T04:07:08;13.40;;;12.07;;
11255;SDS011;5685;52.384;13.420;2022-10-31T04:10:13;12.63;;;11.83;;
11255;SDS011;5685;52.384;13.420;2022-10-31T04:13:17;12.23;;;11.43;;
11255;SDS011;5685;52.384;13.420;2022-10-31T04:16:25;13.10;;;12.20;;
11255;SDS011;5685;52.384;13.420;2022-10-31T04:19:28;12.90;;;12.00;;
11255;SDS011;5685;52.384;13.420;2022-10-31T04:22:31;13.33;;;12.53;;
11255;SDS011;5685;52.384;13.420;2022-10-31T04:25:33;12.90;;;12.00;;
11255;SDS011;5685;52.384;13.420;2022-10-31T04:28:35;13.20;;;12.20;;
11255;SDS011;5685;52.384;13.420;2022-10-31T04:31:37;13.97;;;13.03;;
11255;SDS011;5685;52.384;13.420;2022-10-31T04:34:39;12.83;;;12.03;;
11255;SDS011;5685;52.384;13.420;2022-10-31T04:37:43;12.33;;;11.53;;
11255;SDS011;5685;52.384;13.420;2022-10-31T04:40:45;13.23;;;12.13;;
11255;SDS011;5685;52.384;13.420;2022-10-31T04:43:47;13.07;;;12.17;;
11255;SDS011;5685;52.384;13.420;2022-10-31T04:46:50;13.43;;;12.43;;
11255;SDS011;5685;52.384;13.420;2022-10-31T04:49:52;13.87;;;12.87;;
11255;SDS011;5685;52.384;13.420;2022-10-31T04:52:55;13.13;;;12.17;;
11255;SDS011;5685;52.384;13.420;2022-10-31T04:55:57;13.23;;;12.33;;
11255;SDS011;5685;52.384;13.420;2022-10-31T04:59:00;13.37;;;12.37;;
11255;SDS011;5685;52.384;13.420;2022-10-31T05:02:02;12.47;;;11.43;;
11255;SDS011;5685;52.384;13.420;2022-10-31T05:05:05;12.70;;;11.70;;
11255;SDS011;5685;52.384;13.420;2022-10-31T05:08:09;12.90;;;11.97;;
11255;SDS011;5685;52.384;13.420;2022-10-31T05:11:12;12.87;;;11.83;;
11255;SDS011;5685;52.384;13.420;2022-10-31T05:14:14;12.60;;;11.60;;
11255;SDS011;5685;52.384;13.420;2022-10-31T05:17:16;13.20;;;12.20;;
11255;SDS011;5685;52.384;13.420;2022-10-31T05:20:19;12.30;;;11.57;;
11255;SDS011;5685;52.384;13.420;2022-10-31T05:23:27;12.43;;;11.63;;
11255;SDS011;5685;52.384;13.420;2022-10-31T05:26:29;12.77;;;11.80;;
11255;SDS011;5685;52.384;13.420;2022-10-31T05:29:31;12.63;;;11.73;;
11255;SDS011;5685;52.384;13.420;2022-10-31T05:32:36;12.90;;;11.67;;
11255;SDS011;5685;52.384;13.420;2022-10-31T05:35:39;12.87;;;11.87;;
11255;SDS011;5685;52.384;13.420;2022-10-31T05:38:43;13.53;;;12.33;;
11255;SDS011;5685;52.384;13.420;2022-10-31T05:41:45;12.80;;;11.80;;
11255;SDS011;5685;52.384;13.420;2022-10-31T05:44:47;13.27;;;12.37;;
11255;SDS011;5685;52.384;13.420;2022-10-31T05:47:49;13.27;;;12.37;;
11255;SDS011;5685;52.384;13.420;2022-10-31T05:50:52;12.87;;;11.87;;
11255;SDS011;5685;52.384;13.420;2022-10-31T05:53:56;12.77;;;11.83;;
11255;SDS011;5685;52.384;13.420;2022-10-31T05:56:58;12.70;;;11.90;;
11255;SDS011;5685;52.384;13.420;2022-10-31T06:00:00;13.03;;;12.17;;
11255;SDS011;5685;52.384;13.420;2022-10-31T06:03:03;13.53;;;12.63;;
11255;SDS011;5685;52.384;13.420;2022-10-31T06:06:07;13.37;;;12.50;;
11255;SDS011;5685;52.384;13.420;2022-10-31T06:09:10;13.30;;;12.20;;
11255;SDS011;5685;52.384;13.420;2022-10-31T06:12:13;13.80;;;12.60;;
11255;SDS011;5685;52.384;13.420;2022-10-31T06:15:15;13.67;;;12.77;;
11255;SDS011;5685;52.384;13.420;2022-10-31T06:18:18;13.23;;;12.23;;
11255;SDS011;5685;52.384;13.420;2022-10-31T06:21:20;12.93;;;12.07;;
11255;SDS011;5685;52.384;13.420;2022-10-31T06:24:24;12.20;;;11.30;;
11255;SDS011;5685;52.384;13.420;2022-10-31T06:27:26;12.50;;;11.60;;
11255;SDS011;5685;52.384;13.420;2022-10-31T06:30:28;13.00;;;11.83;;
11255;SDS011;5685;52.384;13.420;2022-10-31T06:33:30;13.00;;;12.10;;
11255;SDS011;5685;52.384;13.420;2022-10-31T06:36:33;12.70;;;11.87;;
11255;SDS011;5685;52.384;13.420;2022-10-31T06:39:36;13.50;;;12.50;;
11255;SDS011;5685;52.384;13.420;2022-10-31T06:42:39;12.63;;;11.93;;
11255;SDS011;5685;52.384;13.420;2022-10-31T06:45:41;12.13;;;11.23;;
11255;SDS011;5685;52.384;13.420;2022-10-31T06:48:43;13.00;;;12.20;;
11255;SDS011;5685;52.384;13.420;2022-10-31T06:51:46;13.27;;;12.47;;
11255;SDS011;5685;52.384;13.420;2022-10-31T06:54:51;14.33;;;13.30;;
11255;SDS011;5685;52.384;13.420;2022-10-31T06:57:53;13.40;;;12.40;;
11255;SDS011;5685;52.384;13.420;2022-10-31T07:00:58;13.57;;;12.57;;
11255;SDS011;5685;52.384;13.420;2022-10-31T07:04:01;13.63;;;12.60;;
11255;SDS011;5685;52.384;13.420;2022-10-31T07:07:03;13.77;;;12.67;;
11255;SDS011;5685;52.384;13.420;2022-10-31T07:10:07;13.40;;;12.53;;
11255;SDS011;5685;52.384;13.420;2022-10-31T07:13:10;12.90;;;12.10;;
11255;SDS011;5685;52.384;13.420;2022-10-31T07:16:14;13.07;;;12.17;;
11255;SDS011;5685;52.384;13.420;2022-10-31T07:19:16;14.97;;;13.43;;
11255;SDS011;5685;52.384;13.420;2022-10-31T07:22:19;13.60;;;12.60;;
11255;SDS011;5685;52.384;13.420;2022-10-31T07:25:22;15.27;;;14.13;;
11255;SDS011;5685;52.384;13.420;2022-10-31T07:28:25;12.77;;;11.83;;
11255;SDS011;5685;52.384;13.420;2022-10-31T07:31:28;13.53;;;12.33;;
11255;SDS011;5685;52.384;13.420;2022-10-31T07:34:30;13.93;;;12.90;;
11255;SDS011;5685;52.384;13.420;2022-10-31T07:37:32;12.40;;;11.60;;
11255;SDS011;5685;52.384;13.420;2022-10-31T07:40:36;14.40;;;13.20;;
11255;SDS011;5685;52.384;13.420;2022-10-31T07:43:39;14.77;;;13.53;;
11255;SDS011;5685;52.384;13.420;2022-10-31T07:46:41;13.90;;;12.63;;
11255;SDS011;5685;52.384;13.420;2022-10-31T07:49:43;12.67;;;11.77;;
11255;SDS011;5685;52.384;13.420;2022-10-31T07:52:45;13.53;;;12.53;;
11255;SDS011;5685;52.384;13.420;2022-10-31T07:55:50;13.27;;;11.93;;
11255;SDS011;5685;52.384;13.420;2022-10-31T07:58:52;13.27;;;12.27;;
11255;SDS011;5685;52.384;13.420;2022-10-31T08:01:54;14.13;;;12.93;;
11255;SDS011;5685;52.384;13.420;2022-10-31T08:04:55;13.13;;;12.13;;
11255;SDS011;5685;52.384;13.420;2022-10-31T08:07:59;12.77;;;11.77;;
11255;SDS011;5685;52.384;13.420;2022-10-31T08:11:03;14.03;;;12.70;;
11255;SDS011;5685;52.384;13.420;2022-10-31T08:14:06;14.77;;;13.47;;
11255;SDS011;5685;52.384;13.420;2022-10-31T08:17:08;14.10;;;13.00;;
11255;SDS011;5685;52.384;13.420;2022-10-31T08:20:10;13.77;;;12.77;;
11255;SDS011;5685;52.384;13.420;2022-10-31T08:23:12;14.13;;;13.03;;
11255;SDS011;5685;52.384;13.420;2022-10-31T08:26:17;15.10;;;13.70;;
11255;SDS011;5685;52.384;13.420;2022-10-31T08:29:19;14.50;;;13.47;;
11255;SDS011;5685;52.384;13.420;2022-10-31T08:32:21;14.63;;;13.43;;
11255;SDS011;5685;52.384;13.420;2022-10-31T08:35:23;14.63;;;13.50;;
11255;SDS011;5685;52.384;13.420;2022-10-31T08:38:26;13.93;;;12.93;;
11255;SDS011;5685;52.384;13.420;2022-10-31T08:41:29;13.90;;;12.80;;
11255;SDS011;5685;52.384;13.420;2022-10-31T08:44:32;14.77;;;13.57;;
11255;SDS011;5685;52.384;13.420;2022-10-31T08:47:34;12.53;;;11.73;;
11255;SDS011;5685;52.384;13.420;2022-10-31T08:50:36;14.00;;;12.90;;
11255;SDS011;5685;52.384;13.420;2022-10-31T08:53:39;13.10;;;12.10;;
11255;SDS011;5685;52.384;13.420;2022-10-31T08:56:42;13.90;;;12.90;;
11255;SDS011;5685;52.384;13.420;2022-10-31T08:59:45;14.00;;;12.87;;
11255;SDS011;5685;52.384;13.420;2022-10-31T09:02:47;13.80;;;12.80;;
11255;SDS011;5685;52.384;13.420;2022-10-31T09:05:49;15.33;;;13.97;;
11255;SDS011;5685;52.384;13.420;2022-10-31T09:08:56;14.03;;;12.93;;
11255;SDS011;5685;52.384;13.420;2022-10-31T09:11:59;14.17;;;13.07;;
11255;SDS011;5685;52.384;13.420;2022-10-31T09:15:01;13.97;;;12.83;;
11255;SDS011;5685;52.384;13.420;2022-10-31T09:18:06;12.70;;;11.80;;
11255;SDS011;5685;52.384;13.420;2022-10-31T09:21:10;14.33;;;13.33;;
11255;SDS011;5685;52.384;13.420;2022-10-31T09:24:12;13.90;;;12.80;;
11255;SDS011;5685;52.384;13.420;2022-10-31T09:27:16;13.93;;;12.73;;
11255;SDS011;5685;52.384;13.420;2022-10-31T09:30:18;13.90;;;12.80;;
11255;SDS011;5685;52.384;13.420;2022-10-31T09:33:20;15.40;;;14.10;;
11255;SDS011;5685;52.384;13.420;2022-10-31T09:36:23;14.97;;;13.67;;
11255;SDS011;5685;52.384;13.420;2022-10-31T09:39:25;14.07;;;13.07;;
11255;SDS011;5685;52.384;13.420;2022-10-31T09:42:36;15.07;;;13.60;;
11255;SDS011;5685;52.384;13.420;2022-10-31T09:45:56;13.97;;;12.67;;
11255;SDS011;5685;52.384;13.420;2022-10-31T09:49:16;13.70;;;12.73;;
11255;SDS011;5685;52.384;13.420;2022-10-31T09:52:38;14.60;;;13.47;;
11255;SDS011;5685;52.384;13.420;2022-10-31T09:55:45;14.70;;;13.47;;
11255;SDS011;5685;52.384;13.420;2022-10-31T09:58:51;14.40;;;13.10;;
11255;SDS011;5685;52.384;13.420;2022-10-31T10:01:56;14.30;;;13.00;;
11255;SDS011;5685;52.384;13.420;2022-10-31T10:05:02;14.23;;;12.87;;
11255;SDS011;5685;52.384;13.420;2022-10-31T10:08:08;14.63;;;13.33;;
11255;SDS011;5685;52.384;13.420;2022-10-31T10:11:20;15.13;;;13.83;;
11255;SDS011;5685;52.384;13.420;2022-10-31T10:14:42;14.37;;;13.27;;
11255;SDS011;5685;52.384;13.420;2022-10-31T10:17:59;14.40;;;13.30;;
11255;SDS011;5685;52.384;13.420;2022-10-31T10:21:21;16.03;;;14.53;;
11255;SDS011;5685;52.384;13.420;2022-10-31T10:24:46;15.93;;;14.43;;
11255;SDS011;5685;52.384;13.420;2022-10-31T10:28:07;14.77;;;13.57;;
11255;SDS011;5685;52.384;13.420;2022-10-31T10:31:20;16.30;;;14.37;;
11255;SDS011;5685;52.384;13.420;2022-10-31T10:34:27;15.90;;;14.40;;
11255;SDS011;5685;52.384;13.420;2022-10-31T10:37:34;16.90;;;14.37;;
11255;SDS011;5685;52.384;13.420;2022-10-31T10:40:40;16.40;;;14.70;;
11255;SDS011;5685;52.384;13.420;2022-10-31T10:43:43;18.83;;;15.93;;
11255;SDS011;5685;52.384;13.420;2022-10-31T10:46:47;16.83;;;13.90;;
11255;SDS011;5685;52.384;13.420;2022-10-31T10:50:16;14.93;;;13.50;;
11255;SDS011;5685;52.384;13.420;2022-10-31T10:53:25;17.23;;;15.40;;
11255;SDS011;5685;52.384;13.420;2022-10-31T10:57:01;18.67;;;15.37;;
11255;SDS011;5685;52.384;13.420;2022-10-31T11:00:16;15.53;;;14.00;;
11255;SDS011;5685;52.384;13.420;2022-10-31T11:03:22;21.70;;;16.33;;
11255;SDS011;5685;52.384;13.420;2022-10-31T11:06:25;18.33;;;15.03;;
11255;SDS011;5685;52.384;13.420;2022-10-31T11:09:27;24.47;;;17.33;;
11255;SDS011;5685;52.384;13.420;2022-10-31T11:12:30;26.97;;;18.77;;
11255;SDS011;5685;52.384;13.420;2022-10-31T11:15:36;23.90;;;17.67;;
11255;SDS011;5685;52.384;13.420;2022-10-31T11:18:52;28.07;;;18.13;;
11255;SDS011;5685;52.384;13.420;2022-10-31T11:22:04;16.47;;;14.30;;
11255;SDS011;5685;52.384;13.420;2022-10-31T11:25:19;16.93;;;15.13;;
11255;SDS011;5685;52.384;13.420;2022-10-31T11:28:22;25.80;;;19.37;;
11255;SDS011;5685;52.384;13.420;2022-10-31T11:31:26;16.13;;;14.70;;
11255;SDS011;5685;52.384;13.420;2022-10-31T11:34:31;17.27;;;14.20;;
11255;SDS011;5685;52.384;13.420;2022-10-31T11:37:40;18.40;;;16.07;;
11255;SDS011;5685;52.384;13.420;2022-10-31T11:40:51;19.33;;;16.13;;
11255;SDS011;5685;52.384;13.420;2022-10-31T11:44:00;16.13;;;14.50;;
11255;SDS011;5685;52.384;13.420;2022-10-31T11:47:12;22.00;;;15.67;;
11255;SDS011;5685;52.384;13.420;2022-10-31T11:50:20;16.27;;;14.07;;
11255;SDS011;5685;52.384;13.420;2022-10-31T11:53:25;20.10;;;15.10;;
11255;SDS011;5685;52.384;13.420;2022-10-31T11:56:37;19.33;;;15.80;;
11255;SDS011;5685;52.384;13.420;2022-10-31T11:59:50;21.70;;;15.63;;
11255;SDS011;5685;52.384;13.420;2022-10-31T12:03:03;16.73;;;14.43;;
11255;SDS011;5685;52.384;13.420;2022-10-31T12:06:16;17.57;;;15.70;;
11255;SDS011;5685;52.384;13.420;2022-10-31T12:09:23;22.97;;;16.73;;
11255;SDS011;5685;52.384;13.420;2022-10-31T12:12:39;19.07;;;16.53;;
11255;SDS011;5685;52.384;13.420;2022-10-31T12:15:57;19.47;;;15.80;;
11255;SDS011;5685;52.384;13.420;2022-10-31T12:19:10;16.63;;;15.03;;
11255;SDS011;5685;52.384;13.420;2022-10-31T12:22:25;17.67;;;15.77;;
11255;SDS011;5685;52.384;13.420;2022-10-31T12:25:39;18.20;;;16.47;;
11255;SDS011;5685;52.384;13.420;2022-10-31T12:28:52;18.90;;;17.00;;
11255;SDS011;5685;52.384;13.420;2022-10-31T12:32:20;19.23;;;17.07;;
11255;SDS011;5685;52.384;13.420;2022-10-31T12:35:34;22.80;;;17.43;;
11255;SDS011;5685;52.384;13.420;2022-10-31T12:38:53;18.80;;;15.67;;
11255;SDS011;5685;52.384;13.420;2022-10-31T12:42:17;20.83;;;16.73;;
11255;SDS011;5685;52.384;13.420;2022-10-31T12:45:32;18.50;;;16.70;;
11255;SDS011;5685;52.384;13.420;2022-10-31T12:52:47;17.90;;;15.97;;
11255;SDS011;5685;52.384;13.420;2022-10-31T12:56:05;17.67;;;15.83;;
11255;SDS011;5685;52.384;13.420;2022-10-31T12:59:27;19.00;;;16.50;;
11255;SDS011;5685;52.384;13.420;2022-10-31T13:02:33;17.40;;;15.57;;
11255;SDS011;5685;52.384;13.420;2022-10-31T13:05:41;21.47;;;17.37;;
11255;SDS011;5685;52.384;13.420;2022-10-31T13:08:49;18.83;;;15.77;;
11255;SDS011;5685;52.384;13.420;2022-10-31T13:11:56;23.07;;;15.80;;
11255;SDS011;5685;52.384;13.420;2022-10-31T13:15:05;17.50;;;15.57;;
11255;SDS011;5685;52.384;13.420;2022-10-31T13:18:19;16.93;;;15.33;;
11255;SDS011;5685;52.384;13.420;2022-10-31T13:21:30;18.80;;;15.60;;
11255;SDS011;5685;52.384;13.420;2022-10-31T13:24:39;17.40;;;15.63;;
11255;SDS011;5685;52.384;13.420;2022-10-31T13:27:50;17.70;;;16.03;;
11255;SDS011;5685;52.384;13.420;2022-10-31T13:30:58;17.07;;;15.27;;
11255;SDS011;5685;52.384;13.420;2022-10-31T13:34:04;18.33;;;14.50;;
11255;SDS011;5685;52.384;13.420;2022-10-31T13:37:16;16.73;;;15.03;;
11255;SDS011;5685;52.384;13.420;2022-10-31T13:40:32;18.07;;;15.30;;
11255;SDS011;5685;52.384;13.420;2022-10-31T13:43:47;16.40;;;14.70;;
11255;SDS011;5685;52.384;13.420;2022-10-31T13:47:01;16.50;;;15.10;;
11255;SDS011;5685;52.384;13.420;2022-10-31T13:50:04;17.60;;;16.07;;
11255;SDS011;5685;52.384;13.420;2022-10-31T13:53:20;16.63;;;14.90;;
11255;SDS011;5685;52.384;13.420;2022-10-31T13:56:24;17.17;;;15.47;;
11255;SDS011;5685;52.384;13.420;2022-10-31T13:59:31;17.07;;;15.47;;
11255;SDS011;5685;52.384;13.420;2022-10-31T14:02:43;17.57;;;15.17;;
11255;SDS011;5685;52.384;13.420;2022-10-31T14:05:51;16.63;;;15.13;;
11255;SDS011;5685;52.384;13.420;2022-10-31T14:08:54;16.57;;;14.97;;
11255;SDS011;5685;52.384;13.420;2022-10-31T14:11:57;16.43;;;14.87;;
11255;SDS011;5685;52.384;13.420;2022-10-31T14:15:15;17.73;;;15.17;;
11255;SDS011;5685;52.384;13.420;2022-10-31T14:18:21;16.23;;;14.83;;
11255;SDS011;5685;52.384;13.420;2022-10-31T14:21:26;16.80;;;15.20;;
11255;SDS011;5685;52.384;13.420;2022-10-31T14:24:32;17.20;;;15.47;;
11255;SDS011;5685;52.384;13.420;2022-10-31T14:27:45;16.03;;;14.63;;
11255;SDS011;5685;52.384;13.420;2022-10-31T14:30:53;15.67;;;14.23;;
11255;SDS011;5685;52.384;13.420;2022-10-31T14:33:57;15.73;;;14.10;;
11255;SDS011;5685;52.384;13.420;2022-10-31T14:40:42;15.83;;;14.43;;
11255;SDS011;5685;52.384;13.420;2022-10-31T14:44:13;15.83;;;14.33;;
11255;SDS011;5685;52.384;13.420;2022-10-31T14:47:39;15.17;;;13.63;;
11255;SDS011;5685;52.384;13.420;2022-10-31T14:50:52;14.40;;;13.20;;
11255;SDS011;5685;52.384;13.420;2022-10-31T14:53:56;14.67;;;13.47;;
11255;SDS011;5685;52.384;13.420;2022-10-31T14:57:00;16.93;;;15.23;;
11255;SDS011;5685;52.384;13.420;2022-10-31T15:00:07;14.27;;;13.17;;
11255;SDS011;5685;52.384;13.420;2022-10-31T15:03:21;14.20;;;13.00;;
11255;SDS011;5685;52.384;13.420;2022-10-31T15:06:30;14.83;;;13.50;;
11255;SDS011;5685;52.384;13.420;2022-10-31T15:09:41;14.30;;;13.10;;
11255;SDS011;5685;52.384;13.420;2022-10-31T15:12:44;15.23;;;13.83;;
11255;SDS011;5685;52.384;13.420;2022-10-31T15:15:46;14.63;;;13.30;;
11255;SDS011;5685;52.384;13.420;2022-10-31T15:18:53;14.67;;;13.37;;
11255;SDS011;5685;52.384;13.420;2022-10-31T15:21:58;14.10;;;12.90;;
11255;SDS011;5685;52.384;13.420;2022-10-31T15:25:01;14.03;;;12.80;;
11255;SDS011;5685;52.384;13.420;2022-10-31T15:28:12;14.17;;;12.93;;
11255;SDS011;5685;52.384;13.420;2022-10-31T15:31:16;14.70;;;13.40;;
11255;SDS011;5685;52.384;13.420;2022-10-31T15:34:21;15.67;;;14.43;;
11255;SDS011;5685;52.384;13.420;2022-10-31T15:37:29;14.97;;;13.60;;
11255;SDS011;5685;52.384;13.420;2022-10-31T15:40:31;15.10;;;14.00;;
11255;SDS011;5685;52.384;13.420;2022-10-31T15:43:34;16.03;;;13.93;;
11255;SDS011;5685;52.384;13.420;2022-10-31T15:46:38;14.87;;;13.53;;
11255;SDS011;5685;52.384;13.420;2022-10-31T15:49:46;16.60;;;14.50;;
11255;SDS011;5685;52.384;13.420;2022-10-31T15:52:51;15.60;;;14.40;;
11255;SDS011;5685;52.384;13.420;2022-10-31T15:55:54;15.60;;;14.20;;
11255;SDS011;5685;52.384;13.420;2022-10-31T15:58:58;14.97;;;13.53;;
11255;SDS011;5685;52.384;13.420;2022-10-31T16:02:07;15.50;;;14.10;;
11255;SDS011;5685;52.384;13.420;2022-10-31T16:05:18;15.80;;;14.50;;
11255;SDS011;5685;52.384;13.420;2022-10-31T16:08:22;17.10;;;15.53;;
11255;SDS011;5685;52.384;13.420;2022-10-31T16:11:32;16.07;;;14.57;;
11255;SDS011;5685;52.384;13.420;2022-10-31T16:14:37;16.07;;;14.67;;
11255;SDS011;5685;52.384;13.420;2022-10-31T16:17:42;15.70;;;14.37;;
11255;SDS011;5685;52.384;13.420;2022-10-31T16:20:49;16.07;;;14.67;;
11255;SDS011;5685;52.384;13.420;2022-10-31T16:23:56;17.17;;;15.50;;
11255;SDS011;5685;52.384;13.420;2022-10-31T16:27:03;16.93;;;15.43;;
11255;SDS011;5685;52.384;13.420;2022-10-31T16:30:30;17.00;;;15.37;;
11255;SDS011;5685;52.384;13.420;2022-10-31T16:33:38;17.27;;;15.50;;
11255;SDS011;5685;52.384;13.420;2022-10-31T16:36:43;17.53;;;15.97;;
11255;SDS011;5685;52.384;13.420;2022-10-31T16:39:46;17.80;;;16.20;;
11255;SDS011;5685;52.384;13.420;2022-10-31T16:42:48;17.30;;;15.70;;
11255;SDS011;5685;52.384;13.420;2022-10-31T16:45:51;16.83;;;15.43;;
11255;SDS011;5685;52.384;13.420;2022-10-31T16:48:53;18.30;;;16.47;;
11255;SDS011;5685;52.384;13.420;2022-10-31T16:51:57;16.97;;;15.27;;
11255;SDS011;5685;52.384;13.420;2022-10-31T16:54:59;17.90;;;16.23;;
11255;SDS011;5685;52.384;13.420;2022-10-31T16:58:02;18.70;;;17.00;;
11255;SDS011;5685;52.384;13.420;2022-10-31T17:01:04;17.40;;;15.90;;
11255;SDS011;5685;52.384;13.420;2022-10-31T17:04:09;18.27;;;16.50;;
11255;SDS011;5685;52.384;13.420;2022-10-31T17:07:16;18.30;;;16.80;;
11255;SDS011;5685;52.384;13.420;2022-10-31T17:10:18;18.73;;;16.80;;
11255;SDS011;5685;52.384;13.420;2022-10-31T17:13:21;18.17;;;16.47;;
11255;SDS011;5685;52.384;13.420;2022-10-31T17:16:26;17.47;;;15.90;;
11255;SDS011;5685;52.384;13.420;2022-10-31T17:19:28;17.83;;;16.23;;
11255;SDS011;5685;52.384;13.420;2022-10-31T17:22:31;18.53;;;16.73;;
11255;SDS011;5685;52.384;13.420;2022-10-31T17:25:34;17.60;;;16.03;;
11255;SDS011;5685;52.384;13.420;2022-10-31T17:28:36;17.07;;;15.57;;
11255;SDS011;5685;52.384;13.420;2022-10-31T17:31:38;18.53;;;16.73;;
11255;SDS011;5685;52.384;13.420;2022-10-31T17:34:40;17.93;;;16.23;;
11255;SDS011;5685;52.384;13.420;2022-10-31T17:37:44;17.47;;;15.97;;
11255;SDS011;5685;52.384;13.420;2022-10-31T17:40:47;19.17;;;16.97;;
11255;SDS011;5685;52.384;13.420;2022-10-31T17:43:53;18.17;;;16.53;;
11255;SDS011;5685;52.384;13.420;2022-10-31T17:46:56;17.70;;;16.13;;
11255;SDS011;5685;52.384;13.420;2022-10-31T17:49:58;17.57;;;15.90;;
11255;SDS011;5685;52.384;13.420;2022-10-31T17:53:02;18.43;;;16.47;;
11255;SDS011;5685;52.384;13.420;2022-10-31T17:56:05;17.77;;;16.30;;
11255;SDS011;5685;52.384;13.420;2022-10-31T17:59:09;17.83;;;16.33;;
11255;SDS011;5685;52.384;13.420;2022-10-31T18:02:11;18.93;;;17.30;;
11255;SDS011;5685;52.384;13.420;2022-10-31T18:05:14;18.67;;;16.93;;
11255;SDS011;5685;52.384;13.420;2022-10-31T18:08:17;18.60;;;17.10;;
11255;SDS011;5685;52.384;13.420;2022-10-31T18:11:20;18.57;;;16.97;;
11255;SDS011;5685;52.384;13.420;2022-10-31T18:14:22;18.47;;;16.87;;
11255;SDS011;5685;52.384;13.420;2022-10-31T18:17:25;15.80;;;14.33;;
11255;SDS011;5685;52.384;13.420;2022-10-31T18:20:27;19.07;;;17.27;;